sensor_id;sensor_type;location;lat;lon;timestamp;temperature;humidity
22923;DHT22;11627;51.322;22.816;2023-02-26T00:01:53;1.80;99.90
22923;DHT22;11627;51.322;22.816;2023-02-26T00:04:23;1.80;99.90
22923;DHT22;11627;51.322;22.816;2023-02-26T00:06:51;1.80;99.90
22923;DHT22;11627;51.322;22.816;2023-02-26T00:09:24;1.80;99.90
22923;DHT22;11627;51.322;22.816;2023-02-26T00:11:53;1.80;99.90
22923;DHT22;11627;51.322;22.816;2023-02-26T00:14:20;1.80;99.90
22923;DHT22;11627;51.322;22.816;2023-02-26T00:17:13;1.90;99.90
22923;DHT22;11627;51.322;22.816;2023-02-26T00:19:48;1.90;99.90
22923;DHT22;11627;51.322;22.816;2023-02-26T00:22:20;1.90;99.90
22923;DHT22;11627;51.322;22.816;2023-02-26T00:24:48;1.80;99.90
22923;DHT22;11627;51.322;22.816;2023-02-26T00:27:17;1.80;99.90
22923;DHT22;11627;51.322;22.816;2023-02-26T00:29:47;1.90;99.90
22923;DHT22;11627;51.322;22.816;2023-02-26T00:32:17;1.80;99.90
22923;DHT22;11627;51.322;22.816;2023-02-26T00:34:46;1.70;99.90
22923;DHT22;11627;51.322;22.816;2023-02-26T00:42:51;1.60;99.90
22923;DHT22;11627;51.322;22.816;2023-02-26T00:45:20;1.60;99.90
22923;DHT22;11627;51.322;22.816;2023-02-26T00:48:12;1.60;99.90
22923;DHT22;11627;51.322;22.816;2023-02-26T00:50:59;1.60;99.90
22923;DHT22;11627;51.322;22.816;2023-02-26T00:54:12;1.60;99.90
22923;DHT22;11627;51.322;22.816;2023-02-26T00:56:36;1.60;99.90
22923;DHT22;11627;51.322;22.816;2023-02-26T00:59:04;1.60;99.90
22923;DHT22;11627;51.322;22.816;2023-02-26T01:01:32;1.60;99.90
22923;DHT22;11627;51.322;22.816;2023-02-26T01:03:59;1.60;99.90
22923;DHT22;11627;51.322;22.816;2023-02-26T01:06:32;1.60;99.90
22923;DHT22;11627;51.322;22.816;2023-02-26T01:09:44;1.60;99.90
22923;DHT22;11627;51.322;22.816;2023-02-26T01:11:59;1.50;99.90
22923;DHT22;11627;51.322;22.816;2023-02-26T01:14:43;1.40;99.90
22923;DHT22;11627;51.322;22.816;2023-02-26T01:17:32;1.10;99.90
22923;DHT22;11627;51.322;22.816;2023-02-26T01:20:19;0.80;99.90
22923;DHT22;11627;51.322;22.816;2023-02-26T01:23:05;0.70;99.90
22923;DHT22;11627;51.322;22.816;2023-02-26T01:28:11;0.70;99.90
22923;DHT22;11627;51.322;22.816;2023-02-26T01:30:42;0.60;99.90
22923;DHT22;11627;51.322;22.816;2023-02-26T01:33:29;0.50;99.90
22923;DHT22;11627;51.322;22.816;2023-02-26T01:36:30;0.40;99.90
22923;DHT22;11627;51.322;22.816;2023-02-26T01:39:27;0.40;99.90
22923;DHT22;11627;51.322;22.816;2023-02-26T01:42:17;0.40;99.90
22923;DHT22;11627;51.322;22.816;2023-02-26T01:45:24;0.50;99.90
22923;DHT22;11627;51.322;22.816;2023-02-26T01:48:03;0.50;99.90
22923;DHT22;11627;51.322;22.816;2023-02-26T01:50:36;0.60;99.90
22923;DHT22;11627;51.322;22.816;2023-02-26T01:53:23;0.70;99.90
22923;DHT22;11627;51.322;22.816;2023-02-26T01:55:56;0.70;99.90
22923;DHT22;11627;51.322;22.816;2023-02-26T01:58:26;0.80;99.90
22923;DHT22;11627;51.322;22.816;2023-02-26T02:00:56;0.80;99.90
22923;DHT22;11627;51.322;22.816;2023-02-26T02:03:26;0.90;99.90
22923;DHT22;11627;51.322;22.816;2023-02-26T02:06:05;0.90;99.90
22923;DHT22;11627;51.322;22.816;2023-02-26T02:08:33;0.90;99.90
22923;DHT22;11627;51.322;22.816;2023-02-26T02:11:03;0.90;99.90
22923;DHT22;11627;51.322;22.816;2023-02-26T02:31:25;1.00;99.90
22923;DHT22;11627;51.322;22.816;2023-02-26T02:42:18;0.90;99.90
22923;DHT22;11627;51.322;22.816;2023-02-26T02:44:52;0.90;99.90
22923;DHT22;11627;51.322;22.816;2023-02-26T02:47:22;0.80;99.90
22923;DHT22;11627;51.322;22.816;2023-02-26T02:50:13;0.90;99.90
22923;DHT22;11627;51.322;22.816;2023-02-26T02:52:59;0.80;99.90
22923;DHT22;11627;51.322;22.816;2023-02-26T02:55:35;0.80;99.90
22923;DHT22;11627;51.322;22.816;2023-02-26T02:58:27;0.80;99.90
22923;DHT22;11627;51.322;22.816;2023-02-26T03:01:08;0.80;99.90
22923;DHT22;11627;51.322;22.816;2023-02-26T03:04:09;0.70;99.90
22923;DHT22;11627;51.322;22.816;2023-02-26T03:06:39;0.50;99.90
22923;DHT22;11627;51.322;22.816;2023-02-26T03:09:08;0.40;99.90
22923;DHT22;11627;51.322;22.816;2023-02-26T03:11:41;0.30;99.90
22923;DHT22;11627;51.322;22.816;2023-02-26T03:14:08;0.20;99.90
22923;DHT22;11627;51.322;22.816;2023-02-26T03:25:53;0.30;99.90
22923;DHT22;11627;51.322;22.816;2023-02-26T03:28:40;0.30;99.90
22923;DHT22;11627;51.322;22.816;2023-02-26T03:31:21;0.30;99.90
22923;DHT22;11627;51.322;22.816;2023-02-26T03:37:01;0.40;99.90
22923;DHT22;11627;51.322;22.816;2023-02-26T03:39:55;0.40;99.90
22923;DHT22;11627;51.322;22.816;2023-02-26T03:42:50;0.40;99.90
22923;DHT22;11627;51.322;22.816;2023-02-26T03:45:33;0.40;99.90
22923;DHT22;11627;51.322;22.816;2023-02-26T03:48:14;0.40;99.90
22923;DHT22;11627;51.322;22.816;2023-02-26T03:50:50;0.40;99.90
22923;DHT22;11627;51.322;22.816;2023-02-26T03:53:29;0.40;99.90
22923;DHT22;11627;51.322;22.816;2023-02-26T03:56:14;0.40;99.90
22923;DHT22;11627;51.322;22.816;2023-02-26T03:58:59;0.40;99.90
22923;DHT22;11627;51.322;22.816;2023-02-26T04:01:35;0.40;99.90
22923;DHT22;11627;51.322;22.816;2023-02-26T04:04:18;0.40;99.90
22923;DHT22;11627;51.322;22.816;2023-02-26T04:06:53;0.40;99.90
22923;DHT22;11627;51.322;22.816;2023-02-26T04:09:24;0.40;99.90
22923;DHT22;11627;51.322;22.816;2023-02-26T04:11:54;0.40;99.90
22923;DHT22;11627;51.322;22.816;2023-02-26T04:14:23;0.40;99.90
22923;DHT22;11627;51.322;22.816;2023-02-26T04:16:52;0.30;99.90
22923;DHT22;11627;51.322;22.816;2023-02-26T04:19:22;0.30;99.90
22923;DHT22;11627;51.322;22.816;2023-02-26T04:21:50;0.30;99.90
22923;DHT22;11627;51.322;22.816;2023-02-26T04:24:15;0.30;99.90
22923;DHT22;11627;51.322;22.816;2023-02-26T04:26:44;0.30;99.90
22923;DHT22;11627;51.322;22.816;2023-02-26T04:29:11;0.10;99.90
22923;DHT22;11627;51.322;22.816;2023-02-26T04:31:36;0.10;99.90
22923;DHT22;11627;51.322;22.816;2023-02-26T04:34:05;0.10;99.90
22923;DHT22;11627;51.322;22.816;2023-02-26T04:36:32;0.10;99.90
22923;DHT22;11627;51.322;22.816;2023-02-26T04:38:58;0.10;99.90
22923;DHT22;11627;51.322;22.816;2023-02-26T04:41:25;0.10;99.90
22923;DHT22;11627;51.322;22.816;2023-02-26T04:43:50;0.10;99.90
22923;DHT22;11627;51.322;22.816;2023-02-26T04:46:17;0.20;99.90
22923;DHT22;11627;51.322;22.816;2023-02-26T04:48:47;0.00;99.90
22923;DHT22;11627;51.322;22.816;2023-02-26T04:51:16;0.00;99.90
22923;DHT22;11627;51.322;22.816;2023-02-26T04:53:44;0.00;99.90
22923;DHT22;11627;51.322;22.816;2023-02-26T04:56:12;0.00;99.90
22923;DHT22;11627;51.322;22.816;2023-02-26T04:58:41;0.00;99.90
22923;DHT22;11627;51.322;22.816;2023-02-26T05:01:09;0.00;99.90
22923;DHT22;11627;51.322;22.816;2023-02-26T05:03:39;0.00;99.90
22923;DHT22;11627;51.322;22.816;2023-02-26T05:06:06;0.00;99.90
22923;DHT22;11627;51.322;22.816;2023-02-26T05:08:32;0.00;99.90
22923;DHT22;11627;51.322;22.816;2023-02-26T05:10:58;0.00;99.90
22923;DHT22;11627;51.322;22.816;2023-02-26T05:13:26;0.00;99.90
22923;DHT22;11627;51.322;22.816;2023-02-26T05:15:54;0.00;99.90
22923;DHT22;11627;51.322;22.816;2023-02-26T05:18:21;0.00;99.90
22923;DHT22;11627;51.322;22.816;2023-02-26T05:20:55;0.00;99.90
22923;DHT22;11627;51.322;22.816;2023-02-26T05:23:21;0.00;99.90
22923;DHT22;11627;51.322;22.816;2023-02-26T05:25:50;0.00;99.90
22923;DHT22;11627;51.322;22.816;2023-02-26T05:28:16;0.00;99.90
22923;DHT22;11627;51.322;22.816;2023-02-26T05:30:44;-0.10;99.90
22923;DHT22;11627;51.322;22.816;2023-02-26T05:33:12;-0.10;99.90
22923;DHT22;11627;51.322;22.816;2023-02-26T05:35:48;-0.10;99.90
22923;DHT22;11627;51.322;22.816;2023-02-26T05:38:16;-0.10;99.90
22923;DHT22;11627;51.322;22.816;2023-02-26T05:40:41;-0.10;99.90
22923;DHT22;11627;51.322;22.816;2023-02-26T05:43:11;-0.10;99.90
22923;DHT22;11627;51.322;22.816;2023-02-26T05:45:39;-0.10;99.90
22923;DHT22;11627;51.322;22.816;2023-02-26T05:48:08;-0.20;99.90
22923;DHT22;11627;51.322;22.816;2023-02-26T05:50:36;-0.20;99.90
22923;DHT22;11627;51.322;22.816;2023-02-26T05:53:05;-0.30;99.90
22923;DHT22;11627;51.322;22.816;2023-02-26T05:55:41;-0.40;99.90
22923;DHT22;11627;51.322;22.816;2023-02-26T05:58:08;-0.40;99.90
22923;DHT22;11627;51.322;22.816;2023-02-26T06:00:35;-0.40;99.90
22923;DHT22;11627;51.322;22.816;2023-02-26T06:03:05;-0.40;99.90
22923;DHT22;11627;51.322;22.816;2023-02-26T06:05:34;-0.40;99.90
22923;DHT22;11627;51.322;22.816;2023-02-26T06:08:11;-0.40;99.90
22923;DHT22;11627;51.322;22.816;2023-02-26T06:10:41;-0.50;99.90
22923;DHT22;11627;51.322;22.816;2023-02-26T06:13:10;-0.50;99.90
22923;DHT22;11627;51.322;22.816;2023-02-26T06:15:36;-0.50;99.90
22923;DHT22;11627;51.322;22.816;2023-02-26T06:18:01;-0.50;99.90
22923;DHT22;11627;51.322;22.816;2023-02-26T06:20:29;-0.60;99.90
22923;DHT22;11627;51.322;22.816;2023-02-26T06:22:57;-0.60;99.90
22923;DHT22;11627;51.322;22.816;2023-02-26T06:25:25;-0.70;99.90
22923;DHT22;11627;51.322;22.816;2023-02-26T06:27:53;-0.70;99.90
22923;DHT22;11627;51.322;22.816;2023-02-26T06:30:22;-0.60;99.90
22923;DHT22;11627;51.322;22.816;2023-02-26T06:32:48;-0.60;99.90
22923;DHT22;11627;51.322;22.816;2023-02-26T06:35:17;-0.60;99.90
22923;DHT22;11627;51.322;22.816;2023-02-26T06:37:45;-0.60;99.90
22923;DHT22;11627;51.322;22.816;2023-02-26T06:40:13;-0.50;99.90
22923;DHT22;11627;51.322;22.816;2023-02-26T06:42:40;-0.60;99.90
22923;DHT22;11627;51.322;22.816;2023-02-26T06:45:09;-0.60;99.90
22923;DHT22;11627;51.322;22.816;2023-02-26T06:47:37;-0.60;99.90
22923;DHT22;11627;51.322;22.816;2023-02-26T06:50:08;-0.60;99.90
22923;DHT22;11627;51.322;22.816;2023-02-26T06:52:35;-0.60;99.90
22923;DHT22;11627;51.322;22.816;2023-02-26T06:55:06;-0.60;99.90
22923;DHT22;11627;51.322;22.816;2023-02-26T06:57:33;-0.60;99.90
22923;DHT22;11627;51.322;22.816;2023-02-26T06:59:59;-0.60;99.90
22923;DHT22;11627;51.322;22.816;2023-02-26T07:02:26;-0.60;99.90
22923;DHT22;11627;51.322;22.816;2023-02-26T07:04:53;-0.60;99.90
22923;DHT22;11627;51.322;22.816;2023-02-26T07:07:20;-0.60;99.90
22923;DHT22;11627;51.322;22.816;2023-02-26T07:09:48;-0.60;99.90
22923;DHT22;11627;51.322;22.816;2023-02-26T07:12:17;-0.60;99.90
22923;DHT22;11627;51.322;22.816;2023-02-26T07:14:43;-0.60;99.90
22923;DHT22;11627;51.322;22.816;2023-02-26T07:17:12;-0.60;99.90
22923;DHT22;11627;51.322;22.816;2023-02-26T07:19:47;-0.70;99.90
22923;DHT22;11627;51.322;22.816;2023-02-26T07:22:16;-0.70;99.90
22923;DHT22;11627;51.322;22.816;2023-02-26T07:24:48;-0.60;99.90
22923;DHT22;11627;51.322;22.816;2023-02-26T07:27:19;-0.70;99.90
22923;DHT22;11627;51.322;22.816;2023-02-26T07:29:45;-0.60;99.90
22923;DHT22;11627;51.322;22.816;2023-02-26T07:32:13;-0.70;99.90
22923;DHT22;11627;51.322;22.816;2023-02-26T07:34:40;-0.60;99.90
22923;DHT22;11627;51.322;22.816;2023-02-26T07:37:07;-0.60;99.90
22923;DHT22;11627;51.322;22.816;2023-02-26T07:39:55;-0.70;99.90
22923;DHT22;11627;51.322;22.816;2023-02-26T07:42:21;-0.80;99.90
22923;DHT22;11627;51.322;22.816;2023-02-26T07:44:49;-0.80;99.90
22923;DHT22;11627;51.322;22.816;2023-02-26T07:47:18;-0.80;99.90
22923;DHT22;11627;51.322;22.816;2023-02-26T07:49:47;-0.80;99.90
22923;DHT22;11627;51.322;22.816;2023-02-26T07:52:14;-0.80;99.90
22923;DHT22;11627;51.322;22.816;2023-02-26T07:54:39;-0.80;99.90
22923;DHT22;11627;51.322;22.816;2023-02-26T07:57:08;-0.70;99.90
22923;DHT22;11627;51.322;22.816;2023-02-26T07:59:34;-0.80;99.90
22923;DHT22;11627;51.322;22.816;2023-02-26T08:02:00;-0.80;99.90
22923;DHT22;11627;51.322;22.816;2023-02-26T08:04:27;-0.80;99.90
22923;DHT22;11627;51.322;22.816;2023-02-26T08:06:55;-0.80;99.90
22923;DHT22;11627;51.322;22.816;2023-02-26T08:09:25;-0.70;99.90
22923;DHT22;11627;51.322;22.816;2023-02-26T08:11:53;-0.70;99.90
22923;DHT22;11627;51.322;22.816;2023-02-26T08:14:21;-0.80;99.90
22923;DHT22;11627;51.322;22.816;2023-02-26T08:16:51;-0.90;99.90
22923;DHT22;11627;51.322;22.816;2023-02-26T08:19:20;-0.90;99.90
22923;DHT22;11627;51.322;22.816;2023-02-26T08:21:47;-0.90;99.90
22923;DHT22;11627;51.322;22.816;2023-02-26T08:24:15;-0.80;99.90
22923;DHT22;11627;51.322;22.816;2023-02-26T08:26:44;-0.90;99.90
22923;DHT22;11627;51.322;22.816;2023-02-26T08:29:12;-0.80;99.90
22923;DHT22;11627;51.322;22.816;2023-02-26T08:31:41;-0.80;99.90
22923;DHT22;11627;51.322;22.816;2023-02-26T08:34:10;-0.80;99.90
22923;DHT22;11627;51.322;22.816;2023-02-26T08:36:38;-0.80;99.90
22923;DHT22;11627;51.322;22.816;2023-02-26T08:39:04;-0.80;99.90
22923;DHT22;11627;51.322;22.816;2023-02-26T08:41:32;-0.80;99.90
22923;DHT22;11627;51.322;22.816;2023-02-26T08:44:01;-0.80;99.90
22923;DHT22;11627;51.322;22.816;2023-02-26T08:46:29;-0.80;99.90
22923;DHT22;11627;51.322;22.816;2023-02-26T08:48:58;-0.90;99.90
22923;DHT22;11627;51.322;22.816;2023-02-26T08:51:23;-0.90;99.90
22923;DHT22;11627;51.322;22.816;2023-02-26T08:53:52;-0.90;99.90
22923;DHT22;11627;51.322;22.816;2023-02-26T08:56:19;-0.80;99.90
22923;DHT22;11627;51.322;22.816;2023-02-26T08:58:46;-0.80;99.90
22923;DHT22;11627;51.322;22.816;2023-02-26T09:01:12;-0.70;99.90
22923;DHT22;11627;51.322;22.816;2023-02-26T09:03:40;-0.70;99.90
22923;DHT22;11627;51.322;22.816;2023-02-26T09:06:07;-0.60;99.90
22923;DHT22;11627;51.322;22.816;2023-02-26T09:08:36;-0.80;99.90
22923;DHT22;11627;51.322;22.816;2023-02-26T09:11:02;-1.00;99.90
22923;DHT22;11627;51.322;22.816;2023-02-26T09:13:30;-1.00;99.90
22923;DHT22;11627;51.322;22.816;2023-02-26T09:16:00;-1.00;99.90
22923;DHT22;11627;51.322;22.816;2023-02-26T09:18:26;-1.00;99.90
22923;DHT22;11627;51.322;22.816;2023-02-26T09:20:53;-1.00;99.90
22923;DHT22;11627;51.322;22.816;2023-02-26T09:23:20;-1.00;99.90
22923;DHT22;11627;51.322;22.816;2023-02-26T09:25:52;-1.10;99.90
22923;DHT22;11627;51.322;22.816;2023-02-26T09:28:23;-1.10;99.90
22923;DHT22;11627;51.322;22.816;2023-02-26T09:30:54;-1.10;99.90
22923;DHT22;11627;51.322;22.816;2023-02-26T09:33:23;-1.10;99.90
22923;DHT22;11627;51.322;22.816;2023-02-26T09:35:50;-1.10;99.90
22923;DHT22;11627;51.322;22.816;2023-02-26T09:38:21;-1.10;99.90
22923;DHT22;11627;51.322;22.816;2023-02-26T09:40:53;-1.10;99.90
22923;DHT22;11627;51.322;22.816;2023-02-26T09:48:46;-0.90;99.90
22923;DHT22;11627;51.322;22.816;2023-02-26T09:51:27;-0.90;99.90
22923;DHT22;11627;51.322;22.816;2023-02-26T09:54:00;-0.80;99.90
22923;DHT22;11627;51.322;22.816;2023-02-26T09:56:34;-0.90;99.90
22923;DHT22;11627;51.322;22.816;2023-02-26T09:59:03;-0.90;99.90
22923;DHT22;11627;51.322;22.816;2023-02-26T10:02:02;-0.80;99.90
22923;DHT22;11627;51.322;22.816;2023-02-26T10:08:16;-0.80;99.90
22923;DHT22;11627;51.322;22.816;2023-02-26T10:11:10;-0.80;99.90
22923;DHT22;11627;51.322;22.816;2023-02-26T10:14:18;-0.70;99.90
22923;DHT22;11627;51.322;22.816;2023-02-26T10:16:56;-0.80;97.80
22923;DHT22;11627;51.322;22.816;2023-02-26T10:19:36;-0.80;97.20
22923;DHT22;11627;51.322;22.816;2023-02-26T10:22:31;-0.80;97.50
22923;DHT22;11627;51.322;22.816;2023-02-26T10:25:06;-0.80;86.00
22923;DHT22;11627;51.322;22.816;2023-02-26T10:30:49;-0.70;87.50
22923;DHT22;11627;51.322;22.816;2023-02-26T10:33:31;-0.60;84.90
22923;DHT22;11627;51.322;22.816;2023-02-26T10:36:26;-0.60;82.80
22923;DHT22;11627;51.322;22.816;2023-02-26T10:39:33;-0.70;78.20
22923;DHT22;11627;51.322;22.816;2023-02-26T10:42:25;-0.60;83.90
22923;DHT22;11627;51.322;22.816;2023-02-26T10:45:24;-0.60;90.50
22923;DHT22;11627;51.322;22.816;2023-02-26T10:48:26;-0.60;91.40
22923;DHT22;11627;51.322;22.816;2023-02-26T10:50:58;-0.70;52.70
22923;DHT22;11627;51.322;22.816;2023-02-26T10:53:28;-0.70;60.00
22923;DHT22;11627;51.322;22.816;2023-02-26T10:56:21;-0.70;50.10
22923;DHT22;11627;51.322;22.816;2023-02-26T10:58:50;-0.70;45.10
22923;DHT22;11627;51.322;22.816;2023-02-26T11:01:21;-0.80;37.00
22923;DHT22;11627;51.322;22.816;2023-02-26T11:03:55;-0.70;38.30
22923;DHT22;11627;51.322;22.816;2023-02-26T11:06:26;-0.70;35.50
22923;DHT22;11627;51.322;22.816;2023-02-26T11:08:56;-0.70;44.80
22923;DHT22;11627;51.322;22.816;2023-02-26T11:14:16;-0.60;22.60
22923;DHT22;11627;51.322;22.816;2023-02-26T11:16:57;-0.50;17.90
22923;DHT22;11627;51.322;22.816;2023-02-26T11:22:58;-0.60;1.70
22923;DHT22;11627;51.322;22.816;2023-02-26T11:25:29;-0.50;1.00
22923;DHT22;11627;51.322;22.816;2023-02-26T11:28:05;-0.60;4.10
22923;DHT22;11627;51.322;22.816;2023-02-26T11:30:41;-0.60;1.80
22923;DHT22;11627;51.322;22.816;2023-02-26T11:33:44;-0.70;1.00
22923;DHT22;11627;51.322;22.816;2023-02-26T11:36:26;-0.50;1.10
22923;DHT22;11627;51.322;22.816;2023-02-26T11:39:01;-0.60;2.00
22923;DHT22;11627;51.322;22.816;2023-02-26T11:41:37;-0.50;2.30
22923;DHT22;11627;51.322;22.816;2023-02-26T11:44:11;-0.50;12.10
22923;DHT22;11627;51.322;22.816;2023-02-26T11:46:49;-0.50;5.50
22923;DHT22;11627;51.322;22.816;2023-02-26T11:49:22;-0.50;6.90
22923;DHT22;11627;51.322;22.816;2023-02-26T11:54:38;-0.30;7.10
22923;DHT22;11627;51.322;22.816;2023-02-26T11:57:17;-0.30;4.60
22923;DHT22;11627;51.322;22.816;2023-02-26T11:59:50;-0.40;6.20
22923;DHT22;11627;51.322;22.816;2023-02-26T12:02:22;-0.40;11.50
22923;DHT22;11627;51.322;22.816;2023-02-26T12:04:52;-0.50;6.40
22923;DHT22;11627;51.322;22.816;2023-02-26T12:07:21;-0.40;12.10
22923;DHT22;11627;51.322;22.816;2023-02-26T12:09:50;-0.40;17.70
22923;DHT22;11627;51.322;22.816;2023-02-26T12:12:51;-0.40;12.60
22923;DHT22;11627;51.322;22.816;2023-02-26T12:16:10;-0.40;13.80
22923;DHT22;11627;51.322;22.816;2023-02-26T12:28:06;-0.30;14.10
22923;DHT22;11627;51.322;22.816;2023-02-26T12:40:28;-0.30;16.00
22923;DHT22;11627;51.322;22.816;2023-02-26T12:58:01;-0.50;20.00
22923;DHT22;11627;51.322;22.816;2023-02-26T13:01:03;-0.50;20.80
22923;DHT22;11627;51.322;22.816;2023-02-26T13:09:54;-0.60;35.40
22923;DHT22;11627;51.322;22.816;2023-02-26T13:21:52;-0.70;38.90
22923;DHT22;11627;51.322;22.816;2023-02-26T13:24:38;-0.70;41.80
22923;DHT22;11627;51.322;22.816;2023-02-26T13:27:17;-0.60;49.30
22923;DHT22;11627;51.322;22.816;2023-02-26T13:32:57;-0.70;59.50
22923;DHT22;11627;51.322;22.816;2023-02-26T13:35:39;-0.70;66.20
22923;DHT22;11627;51.322;22.816;2023-02-26T13:41:15;-0.60;69.90
22923;DHT22;11627;51.322;22.816;2023-02-26T13:51:52;-0.60;76.80
22923;DHT22;11627;51.322;22.816;2023-02-26T13:54:43;-0.50;79.10
22923;DHT22;11627;51.322;22.816;2023-02-26T14:00:32;-0.50;79.00
22923;DHT22;11627;51.322;22.816;2023-02-26T14:06:05;-0.60;54.00
22923;DHT22;11627;51.322;22.816;2023-02-26T14:08:55;-0.70;54.00
22923;DHT22;11627;51.322;22.816;2023-02-26T14:11:43;-0.70;66.00
22923;DHT22;11627;51.322;22.816;2023-02-26T14:20:14;-0.60;61.00
22923;DHT22;11627;51.322;22.816;2023-02-26T14:22:46;-0.60;59.90
22923;DHT22;11627;51.322;22.816;2023-02-26T14:25:50;-0.60;53.90
22923;DHT22;11627;51.322;22.816;2023-02-26T14:28:44;-0.70;51.80
22923;DHT22;11627;51.322;22.816;2023-02-26T14:32:21;-0.60;40.30
22923;DHT22;11627;51.322;22.816;2023-02-26T14:34:29;-0.60;42.70
22923;DHT22;11627;51.322;22.816;2023-02-26T14:37:04;-0.30;36.00
22923;DHT22;11627;51.322;22.816;2023-02-26T14:39:46;-0.70;46.90
22923;DHT22;11627;51.322;22.816;2023-02-26T14:42:43;-0.70;51.10
22923;DHT22;11627;51.322;22.816;2023-02-26T14:48:03;-0.70;40.90
22923;DHT22;11627;51.322;22.816;2023-02-26T14:50:57;-0.70;40.30
22923;DHT22;11627;51.322;22.816;2023-02-26T15:20:03;-0.90;35.80
22923;DHT22;11627;51.322;22.816;2023-02-26T15:25:34;-0.90;41.90
22923;DHT22;11627;51.322;22.816;2023-02-26T15:28:05;-0.90;42.40
22923;DHT22;11627;51.322;22.816;2023-02-26T15:30:34;-1.00;35.40
22923;DHT22;11627;51.322;22.816;2023-02-26T15:33:06;-0.90;28.50
22923;DHT22;11627;51.322;22.816;2023-02-26T15:35:36;-0.90;32.40
22923;DHT22;11627;51.322;22.816;2023-02-26T15:38:04;-0.90;28.50
22923;DHT22;11627;51.322;22.816;2023-02-26T15:40:33;-0.90;33.20
22923;DHT22;11627;51.322;22.816;2023-02-26T15:43:02;-0.90;32.40
22923;DHT22;11627;51.322;22.816;2023-02-26T15:45:48;-0.90;37.80
22923;DHT22;11627;51.322;22.816;2023-02-26T15:48:33;-0.90;34.50
22923;DHT22;11627;51.322;22.816;2023-02-26T15:51:16;-0.90;35.10
22923;DHT22;11627;51.322;22.816;2023-02-26T15:53:55;-1.00;33.20
22923;DHT22;11627;51.322;22.816;2023-02-26T15:56:33;-1.00;32.80
22923;DHT22;11627;51.322;22.816;2023-02-26T15:59:10;-1.00;40.10
22923;DHT22;11627;51.322;22.816;2023-02-26T16:01:57;-1.00;46.10
22923;DHT22;11627;51.322;22.816;2023-02-26T16:04:26;-1.10;56.70
22923;DHT22;11627;51.322;22.816;2023-02-26T16:06:54;-1.10;58.90
22923;DHT22;11627;51.322;22.816;2023-02-26T16:11:54;-1.10;66.10
22923;DHT22;11627;51.322;22.816;2023-02-26T16:14:25;-1.10;67.70
22923;DHT22;11627;51.322;22.816;2023-02-26T16:16:56;-1.10;71.10
22923;DHT22;11627;51.322;22.816;2023-02-26T16:19:39;-1.10;74.90
22923;DHT22;11627;51.322;22.816;2023-02-26T16:25:14;-1.30;82.10
22923;DHT22;11627;51.322;22.816;2023-02-26T16:27:42;-1.30;86.90
22923;DHT22;11627;51.322;22.816;2023-02-26T16:30:18;-1.30;91.10
22923;DHT22;11627;51.322;22.816;2023-02-26T16:33:03;-1.40;95.30
22923;DHT22;11627;51.322;22.816;2023-02-26T16:35:49;-1.40;99.10
22923;DHT22;11627;51.322;22.816;2023-02-26T16:38:30;-1.50;99.90
22923;DHT22;11627;51.322;22.816;2023-02-26T16:41:07;-1.50;99.90
22923;DHT22;11627;51.322;22.816;2023-02-26T16:46:38;-1.50;99.90
22923;DHT22;11627;51.322;22.816;2023-02-26T16:49:31;-1.60;99.80
22923;DHT22;11627;51.322;22.816;2023-02-26T16:52:00;-1.50;98.90
22923;DHT22;11627;51.322;22.816;2023-02-26T16:54:31;-1.50;97.50
22923;DHT22;11627;51.322;22.816;2023-02-26T16:59:36;-1.40;99.30
22923;DHT22;11627;51.322;22.816;2023-02-26T17:02:15;-1.40;98.40
22923;DHT22;11627;51.322;22.816;2023-02-26T17:04:45;-1.40;98.50
22923;DHT22;11627;51.322;22.816;2023-02-26T17:07:35;-1.50;96.60
22923;DHT22;11627;51.322;22.816;2023-02-26T17:10:21;-1.50;95.20
22923;DHT22;11627;51.322;22.816;2023-02-26T17:12:51;-1.50;96.20
22923;DHT22;11627;51.322;22.816;2023-02-26T17:15:42;-1.50;96.10
22923;DHT22;11627;51.322;22.816;2023-02-26T17:18:16;-1.50;97.20
22923;DHT22;11627;51.322;22.816;2023-02-26T17:20:42;-1.50;98.60
22923;DHT22;11627;51.322;22.816;2023-02-26T17:23:16;-1.50;95.10
22923;DHT22;11627;51.322;22.816;2023-02-26T17:25:53;-1.40;96.20
22923;DHT22;11627;51.322;22.816;2023-02-26T17:28:41;-1.40;97.70
22923;DHT22;11627;51.322;22.816;2023-02-26T17:31:10;-1.50;96.90
22923;DHT22;11627;51.322;22.816;2023-02-26T17:33:43;-1.50;96.50
22923;DHT22;11627;51.322;22.816;2023-02-26T17:36:16;-1.40;97.00
22923;DHT22;11627;51.322;22.816;2023-02-26T17:38:49;-1.50;96.30
22923;DHT22;11627;51.322;22.816;2023-02-26T17:41:18;-1.50;98.60
22923;DHT22;11627;51.322;22.816;2023-02-26T17:43:48;-1.50;99.10
22923;DHT22;11627;51.322;22.816;2023-02-26T17:46:19;-1.40;99.40
22923;DHT22;11627;51.322;22.816;2023-02-26T17:48:48;-1.50;99.50
22923;DHT22;11627;51.322;22.816;2023-02-26T17:51:16;-1.50;99.50
22923;DHT22;11627;51.322;22.816;2023-02-26T17:53:46;-1.50;98.50
22923;DHT22;11627;51.322;22.816;2023-02-26T17:56:23;-1.50;99.40
22923;DHT22;11627;51.322;22.816;2023-02-26T17:58:51;-1.40;99.90
22923;DHT22;11627;51.322;22.816;2023-02-26T18:01:21;-1.40;99.90
22923;DHT22;11627;51.322;22.816;2023-02-26T18:03:56;-1.40;99.90
22923;DHT22;11627;51.322;22.816;2023-02-26T18:07:12;-1.40;99.50
22923;DHT22;11627;51.322;22.816;2023-02-26T18:09:47;-1.40;99.90
22923;DHT22;11627;51.322;22.816;2023-02-26T18:12:24;-1.40;99.20
22923;DHT22;11627;51.322;22.816;2023-02-26T18:14:52;-1.40;99.10
22923;DHT22;11627;51.322;22.816;2023-02-26T18:17:41;-1.40;95.80
22923;DHT22;11627;51.322;22.816;2023-02-26T18:20:19;-1.30;91.30
22923;DHT22;11627;51.322;22.816;2023-02-26T18:22:49;-1.30;90.30
22923;DHT22;11627;51.322;22.816;2023-02-26T18:25:17;-1.30;87.70
22923;DHT22;11627;51.322;22.816;2023-02-26T18:27:51;-1.30;80.50
22923;DHT22;11627;51.322;22.816;2023-02-26T18:30:23;-1.30;87.40
22923;DHT22;11627;51.322;22.816;2023-02-26T18:32:50;-1.30;89.20
22923;DHT22;11627;51.322;22.816;2023-02-26T18:35:16;-1.30;89.00
22923;DHT22;11627;51.322;22.816;2023-02-26T18:37:42;-1.20;89.70
22923;DHT22;11627;51.322;22.816;2023-02-26T18:40:17;-1.20;89.90
22923;DHT22;11627;51.322;22.816;2023-02-26T18:42:52;-1.20;87.30
22923;DHT22;11627;51.322;22.816;2023-02-26T18:45:23;-1.10;87.40
22923;DHT22;11627;51.322;22.816;2023-02-26T18:47:52;-1.10;75.80
22923;DHT22;11627;51.322;22.816;2023-02-26T18:50:19;-1.20;59.50
22923;DHT22;11627;51.322;22.816;2023-02-26T18:52:48;-1.20;65.00
22923;DHT22;11627;51.322;22.816;2023-02-26T18:55:17;-1.20;67.30
22923;DHT22;11627;51.322;22.816;2023-02-26T18:57:42;-1.20;71.30
22923;DHT22;11627;51.322;22.816;2023-02-26T19:00:12;-1.20;61.00
22923;DHT22;11627;51.322;22.816;2023-02-26T19:02:40;-1.20;66.80
22923;DHT22;11627;51.322;22.816;2023-02-26T19:05:14;-1.20;66.50
22923;DHT22;11627;51.322;22.816;2023-02-26T19:07:51;-1.20;65.90
22923;DHT22;11627;51.322;22.816;2023-02-26T19:10:18;-1.10;51.60
22923;DHT22;11627;51.322;22.816;2023-02-26T19:12:47;-1.20;53.40